createdAt,value
2019-04-07T00:02:09.993Z,100653.35
2019-04-07T00:04:39.665Z,100657.88
2019-04-07T00:07:09.324Z,100650.87
2019-04-07T00:09:40.082Z,100649.59
2019-04-07T00:12:09.534Z,100651.92
2019-04-07T00:14:39.160Z,100655.83
2019-04-07T00:17:09.342Z,100649.77
2019-04-07T00:19:38.906Z,100652.06
2019-04-07T00:22:08.297Z,100651.60
2019-04-07T00:24:37.719Z,100646.69
2019-04-07T00:27:07.622Z,100649.07
2019-04-07T00:29:36.887Z,100644.26
2019-04-07T00:32:06.165Z,100642.64
2019-04-07T00:34:35.863Z,100645.35
2019-04-07T00:37:05.548Z,100642.73
2019-04-07T00:39:34.801Z,100639.84
2019-04-07T00:42:03.876Z,100637.86
2019-04-07T00:44:33.555Z,100640.15
2019-04-07T00:47:04.090Z,100629.18
2019-04-07T00:49:33.393Z,100636.38
2019-04-07T00:52:04.928Z,100625.87
2019-04-07T00:54:34.759Z,100633.80
2019-04-07T00:57:04.440Z,100628.94
2019-04-07T00:59:35.186Z,100635.67
2019-04-07T01:02:05.803Z,100638.84
2019-04-07T01:04:35.451Z,100635.39
2019-04-07T01:07:04.842Z,100644.99
2019-04-07T01:09:35.284Z,100643.62
2019-04-07T01:12:04.988Z,100642.00
2019-04-07T01:14:34.293Z,100643.78
2019-04-07T01:17:03.674Z,100647.45
2019-04-07T01:19:33.296Z,100651.97
2019-04-07T01:22:02.419Z,100652.47
2019-04-07T01:24:31.865Z,100652.97
2019-04-07T01:27:02.825Z,100656.16
2019-04-07T01:29:32.174Z,100657.08
2019-04-07T01:32:02.178Z,100657.08
2019-04-07T01:34:32.171Z,100661.56
2019-04-07T01:37:01.307Z,100654.20
2019-04-07T01:39:30.730Z,100658.69
2019-04-07T01:42:25.492Z,100655.20
2019-04-07T01:45:29.165Z,100657.06
2019-04-07T01:48:20.439Z,100652.21
2019-04-07T01:51:13.623Z,100654.04
2019-04-07T01:53:54.966Z,100652.37
2019-04-07T01:56:44.062Z,100652.91
2019-04-07T01:59:26.547Z,100654.40
2019-04-07T02:02:27.254Z,100652.73
2019-04-07T02:05:19.079Z,100651.22
2019-04-07T02:07:55.723Z,100656.85
2019-04-07T02:10:42.994Z,100657.50
2019-04-07T02:13:31.328Z,100658.56
2019-04-07T02:16:06.436Z,100656.94
2019-04-07T02:18:57.617Z,100651.40
2019-04-07T02:21:41.799Z,100662.70
2019-04-07T02:24:23.501Z,100660.75
2019-04-07T02:27:18.215Z,100661.84
2019-04-07T02:30:13.054Z,100656.72
2019-04-07T02:33:05.089Z,100662.12
2019-04-07T02:35:46.551Z,100660.11
2019-04-07T02:38:42.302Z,100658.95
2019-04-07T02:41:24.507Z,100659.48
2019-04-07T02:44:10.839Z,100659.06
2019-04-07T02:46:57.571Z,100660.81
2019-04-07T02:49:35.953Z,100657.63
2019-04-07T02:52:28.130Z,100656.41
2019-04-07T02:55:32.216Z,100667.44
2019-04-07T02:58:20.273Z,100663.50
2019-04-07T03:01:07.926Z,100667.64
2019-04-07T03:03:55.557Z,100665.94
2019-04-07T03:06:47.759Z,100664.30
2019-04-07T03:09:20.545Z,100666.27
2019-04-07T03:12:24.012Z,100667.70
2019-04-07T03:15:24.907Z,100666.89
2019-04-07T03:18:12.797Z,100664.34
2019-04-07T03:21:08.349Z,100666.19
2019-04-07T03:23:56.578Z,100660.53
2019-04-07T03:26:58.246Z,100658.05
2019-04-07T03:29:45.264Z,100655.92
2019-04-07T03:32:38.844Z,100652.56
2019-04-07T03:35:35.077Z,100652.59
2019-04-07T03:38:36.810Z,100655.69
2019-04-07T03:41:26.113Z,100657.98
2019-04-07T03:44:01.328Z,100658.56
2019-04-07T03:46:49.809Z,100659.89
2019-04-07T03:49:23.833Z,100660.80
2019-04-07T03:52:18.028Z,100663.34
2019-04-07T03:55:09.555Z,100660.70
2019-04-07T03:58:08.035Z,100666.00
2019-04-07T04:01:35.516Z,100661.57
2019-04-07T04:04:24.947Z,100666.00
2019-04-07T04:07:20.628Z,100658.98
2019-04-07T04:09:59.897Z,100659.89
2019-04-07T04:12:46.916Z,100657.24
2019-04-07T04:15:29.843Z,100659.47
2019-04-07T04:18:01.191Z,100656.37
2019-04-07T04:20:30.758Z,100669.94
2019-04-07T04:23:00.073Z,100655.02
2019-04-07T04:25:30.264Z,100660.83
2019-04-07T04:27:59.918Z,100663.51
2019-04-07T04:30:29.948Z,100668.38
2019-04-07T04:32:59.784Z,100667.13
2019-04-07T04:35:32.362Z,100666.41
2019-04-07T04:38:02.257Z,100664.56
2019-04-07T04:40:32.312Z,100675.55
2019-04-07T04:43:03.304Z,100673.36
2019-04-07T04:45:33.802Z,100672.52
2019-04-07T04:48:03.042Z,100675.67
2019-04-07T04:50:32.242Z,100673.12
2019-04-07T04:53:02.049Z,100685.42
2019-04-07T04:55:31.898Z,100677.16
2019-04-07T04:58:02.242Z,100683.77
2019-04-07T05:00:32.692Z,100682.09
2019-04-07T05:03:02.826Z,100682.54
2019-04-07T05:05:32.927Z,100686.58
2019-04-07T05:08:05.115Z,100686.21
2019-04-07T05:10:33.145Z,100689.77
2019-04-07T05:13:02.794Z,100692.41
2019-04-07T05:15:35.121Z,100687.51
2019-04-07T05:18:06.417Z,100699.88
2019-04-07T05:20:36.000Z,100698.13
2019-04-07T05:23:05.310Z,100696.38
2019-04-07T05:25:34.947Z,100697.70
2019-04-07T05:28:07.936Z,100704.24
2019-04-07T05:30:38.087Z,100696.66
2019-04-07T05:33:07.529Z,100705.47
2019-04-07T05:35:37.859Z,100709.36
2019-04-07T05:38:08.354Z,100710.92
2019-04-07T05:40:38.684Z,100710.70
2019-04-07T05:43:07.790Z,100717.12
2019-04-07T05:45:37.687Z,100719.48
2019-04-07T05:48:08.163Z,100717.81
2019-04-07T05:50:38.582Z,100722.79
2019-04-07T05:53:12.125Z,100726.92
2019-04-07T05:55:42.585Z,100727.98
2019-04-07T05:58:15.276Z,100729.73
2019-04-07T06:00:45.755Z,100738.36
2019-04-07T06:03:15.382Z,100737.52
2019-04-07T06:05:50.038Z,100738.77
2019-04-07T06:08:25.829Z,100744.16
2019-04-07T06:10:47.198Z,100741.52
2019-04-07T06:13:17.495Z,100747.81
2019-04-07T06:15:48.581Z,100749.22
2019-04-07T06:18:18.478Z,100746.28
2019-04-07T06:20:48.532Z,100744.78
2019-04-07T06:23:22.749Z,100747.08
2019-04-07T06:25:50.123Z,100754.23
2019-04-07T06:28:19.520Z,100751.03
2019-04-07T06:30:49.542Z,100748.66
2019-04-07T06:33:19.932Z,100742.72
2019-04-07T06:35:49.828Z,100751.69
2019-04-07T06:38:30.322Z,100751.56
2019-04-07T06:40:50.805Z,100751.09
2019-04-07T06:43:22.311Z,100754.23
2019-04-07T06:45:58.974Z,100748.43
2019-04-07T06:48:28.867Z,100749.77
2019-04-07T06:51:09.569Z,100759.78
2019-04-07T06:53:59.004Z,100758.53
2019-04-07T06:56:38.667Z,100761.42
2019-04-07T06:59:18.580Z,100763.84
2019-04-07T07:02:07.311Z,100763.16
2019-04-07T07:05:01.788Z,100758.65
2019-04-07T07:07:42.519Z,100764.19
2019-04-07T07:10:35.555Z,100769.06
2019-04-07T07:13:11.812Z,100766.95
2019-04-07T07:16:00.470Z,100759.43
2019-04-07T07:18:54.717Z,100767.75
2019-04-07T07:21:38.752Z,100765.76
2019-04-07T07:24:06.033Z,100760.59
2019-04-07T07:26:37.172Z,100766.98
2019-04-07T07:29:06.829Z,100767.84
2019-04-07T07:31:36.914Z,100770.22
2019-04-07T07:34:09.382Z,100774.83
2019-04-07T07:36:39.294Z,100774.59
2019-04-07T07:39:11.790Z,100777.03
2019-04-07T07:41:41.298Z,100778.14
2019-04-07T07:44:13.521Z,100780.02
2019-04-07T07:46:44.448Z,100776.77
2019-04-07T07:49:14.773Z,100776.16
2019-04-07T07:51:47.359Z,100775.66
2019-04-07T07:54:17.234Z,100779.30
2019-04-07T07:56:48.595Z,100777.34
2019-04-07T07:59:20.179Z,100772.79
2019-04-07T08:01:53.463Z,100773.48
2019-04-07T08:04:26.956Z,100778.75
2019-04-07T08:06:57.856Z,100777.23
2019-04-07T08:09:27.298Z,100776.08
2019-04-07T08:11:57.784Z,100778.50
2019-04-07T08:14:27.325Z,100774.13
2019-04-07T08:17:02.473Z,100780.56
2019-04-07T08:19:32.994Z,100788.59
2019-04-07T08:22:03.050Z,100785.36
2019-04-07T08:24:32.777Z,100787.14
2019-04-07T08:27:04.030Z,100790.25
2019-04-07T08:29:37.147Z,100788.36
2019-04-07T08:32:06.619Z,100787.97
2019-04-07T08:34:37.182Z,100794.95
2019-04-07T08:37:09.566Z,100795.56
2019-04-07T08:40:16.976Z,100788.73
2019-04-07T08:42:49.114Z,100793.51
2019-04-07T08:45:18.945Z,100796.47
2019-04-07T08:47:52.476Z,100802.64
2019-04-07T08:50:22.785Z,100799.59
2019-04-07T08:53:21.253Z,100798.73
2019-04-07T08:55:54.403Z,100797.98
2019-04-07T08:58:25.776Z,100805.76
2019-04-07T09:00:53.988Z,100804.59
2019-04-07T09:03:23.706Z,100798.81
2019-04-07T09:05:56.458Z,100803.30
2019-04-07T09:08:24.059Z,100804.32
2019-04-07T09:11:08.986Z,100797.90
2019-04-07T09:13:38.492Z,100800.73
2019-04-07T09:16:35.892Z,100794.24
2019-04-07T09:19:36.806Z,100797.70
2019-04-07T09:22:40.763Z,100796.81
2019-04-07T09:25:21.412Z,100799.11
2019-04-07T09:27:57.204Z,100802.53
2019-04-07T09:30:48.415Z,100799.95
2019-04-07T09:33:36.949Z,100803.81
2019-04-07T09:36:16.945Z,100802.96
2019-04-07T09:39:12.351Z,100801.22
2019-04-07T09:41:58.715Z,100802.77
2019-04-07T09:44:55.231Z,100805.41
2019-04-07T09:47:46.821Z,100806.42
2019-04-07T09:50:36.390Z,100800.31
2019-04-07T09:53:18.890Z,100793.74
2019-04-07T09:56:05.752Z,100793.74
2019-04-07T09:58:54.631Z,100799.98
2019-04-07T10:01:36.404Z,100802.31
2019-04-07T10:04:31.249Z,100798.53
2019-04-07T10:07:09.640Z,100750.97
2019-04-07T10:10:12.957Z,100796.67
2019-04-07T10:13:00.953Z,100796.45
2019-04-07T10:15:47.808Z,100794.45
2019-04-07T10:18:36.727Z,100790.77
2019-04-07T10:21:24.085Z,100801.38
2019-04-07T10:24:00.742Z,100797.53
2019-04-07T10:26:47.346Z,100788.39
2019-04-07T10:29:35.324Z,100797.27
2019-04-07T10:32:27.072Z,100787.31
2019-04-07T10:35:19.363Z,100790.91
2019-04-07T10:37:58.166Z,100791.64
2019-04-07T10:40:50.363Z,100782.13
2019-04-07T10:43:41.298Z,100784.92
2019-04-07T10:46:22.586Z,100780.05
2019-04-07T10:49:04.655Z,100781.10
2019-04-07T10:51:53.391Z,100776.13
2019-04-07T10:54:44.798Z,100781.66
2019-04-07T10:57:48.150Z,100770.53
2019-04-07T11:00:51.545Z,100773.00
2019-04-07T11:03:39.420Z,100768.02
2019-04-07T11:06:28.404Z,100786.27
2019-04-07T11:09:13.281Z,100770.64
2019-04-07T11:11:59.981Z,100769.55
2019-04-07T11:14:51.694Z,100768.15
2019-04-07T11:17:43.676Z,100766.46
2019-04-07T11:20:41.064Z,100761.29
2019-04-07T11:23:35.835Z,100759.13
2019-04-07T11:26:27.397Z,100762.05
2019-04-07T11:29:07.116Z,100759.25
2019-04-07T11:32:05.509Z,100771.44
2019-04-07T11:35:00.616Z,100768.59
2019-04-07T11:37:51.818Z,100757.98
2019-04-07T11:40:51.190Z,100769.17
2019-04-07T11:43:44.467Z,100764.49
2019-04-07T11:46:51.932Z,100765.13
2019-04-07T11:49:46.210Z,100764.30
2019-04-07T11:52:27.833Z,100751.98
2019-04-07T11:55:06.425Z,100749.13
2019-04-07T11:58:13.522Z,100752.33
2019-04-07T12:00:53.894Z,100755.80
2019-04-07T12:03:57.997Z,100760.39
2019-04-07T12:07:07.792Z,100762.33
2019-04-07T12:09:55.244Z,100758.17
2019-04-07T12:12:32.968Z,100758.66
2019-04-07T12:15:36.928Z,100761.00
2019-04-07T12:18:23.741Z,100755.11
2019-04-07T12:21:05.247Z,100749.55
2019-04-07T12:23:52.831Z,100750.75
2019-04-07T12:26:43.614Z,100749.05
2019-04-07T12:29:23.262Z,100742.80
2019-04-07T12:32:10.831Z,100749.61
2019-04-07T12:34:57.845Z,100753.63
2019-04-07T12:37:42.026Z,100750.91
2019-04-07T12:40:32.583Z,100752.28
2019-04-07T12:43:33.930Z,100744.02
2019-04-07T12:46:19.318Z,100760.45
2019-04-07T12:49:09.148Z,100754.25
2019-04-07T12:52:05.835Z,100755.17
2019-04-07T12:55:00.422Z,100752.75
2019-04-07T12:57:52.097Z,100741.92
2019-04-07T13:00:56.112Z,100745.48
2019-04-07T13:03:37.441Z,100751.61
2019-04-07T13:06:17.895Z,100753.34
2019-04-07T13:09:07.105Z,100745.87
2019-04-07T13:11:45.812Z,100752.37
2019-04-07T13:14:35.275Z,100750.98
2019-04-07T13:17:22.009Z,100746.86
2019-04-07T13:19:59.072Z,100755.61
2019-04-07T13:22:42.486Z,100750.55
2019-04-07T13:25:30.231Z,100744.94
2019-04-07T13:28:22.841Z,100742.38
2019-04-07T13:31:13.505Z,100744.80
2019-04-07T13:34:01.196Z,100736.81
2019-04-07T13:36:47.714Z,100735.91
2019-04-07T13:39:48.357Z,100736.50
2019-04-07T13:42:43.113Z,100731.86
2019-04-07T13:45:37.172Z,100736.36
2019-04-07T13:48:33.343Z,100736.07
2019-04-07T13:51:21.543Z,100727.03
2019-04-07T13:54:11.097Z,100729.34
2019-04-07T13:56:59.080Z,100727.12
2019-04-07T13:59:48.821Z,100731.99
2019-04-07T14:02:31.576Z,100727.57
2019-04-07T14:05:25.959Z,100727.57
2019-04-07T14:08:07.081Z,100720.30
2019-04-07T14:10:47.182Z,100730.25
2019-04-07T14:13:26.822Z,100727.70
2019-04-07T14:16:16.001Z,100720.41
2019-04-07T14:19:13.852Z,100717.23
2019-04-07T14:22:11.271Z,100716.09
2019-04-07T14:24:49.921Z,100717.99
2019-04-07T14:27:38.416Z,100718.96
2019-04-07T14:30:19.219Z,100718.27
2019-04-07T14:33:00.070Z,100717.57
2019-04-07T14:36:04.258Z,100717.57
2019-04-07T14:38:45.555Z,100700.30
2019-04-07T14:41:41.162Z,100721.87
2019-04-07T14:44:22.557Z,100716.92
2019-04-07T14:47:10.790Z,100711.53
2019-04-07T14:50:01.953Z,100716.39
2019-04-07T14:52:44.761Z,100714.19
2019-04-07T14:55:22.623Z,100712.35
2019-04-07T14:58:17.520Z,100726.07
2019-04-07T15:01:04.630Z,100711.48
2019-04-07T15:03:33.294Z,100719.48
2019-04-07T15:06:49.175Z,100713.17
2019-04-07T15:09:25.095Z,100716.94
2019-04-07T15:12:05.216Z,100716.94
2019-04-07T15:14:33.857Z,100713.38
2019-04-07T15:17:03.629Z,100719.73
2019-04-07T15:19:33.932Z,100719.73
2019-04-07T15:22:04.558Z,100710.53
2019-04-07T15:24:35.867Z,100719.63
2019-04-07T15:27:06.528Z,100719.63
2019-04-07T15:29:41.359Z,100718.91
2019-04-07T15:32:07.517Z,100718.28
2019-04-07T15:34:39.494Z,100718.28
2019-04-07T15:37:08.367Z,100716.45
2019-04-07T15:39:38.373Z,100717.47
2019-04-07T15:42:09.312Z,100721.36
2019-04-07T15:44:39.647Z,100721.36
2019-04-07T15:47:09.486Z,100722.95
2019-04-07T15:49:38.790Z,100723.86
2019-04-07T15:52:11.263Z,100727.32
2019-04-07T15:54:40.368Z,100727.32
2019-04-07T15:57:10.062Z,100725.05
2019-04-07T15:59:42.402Z,100726.73
2019-04-07T16:02:12.460Z,100724.36
2019-04-07T16:04:42.512Z,100730.73
2019-04-07T16:07:12.211Z,100723.91
2019-04-07T16:09:51.059Z,100735.97
2019-04-07T16:12:13.485Z,100732.12
2019-04-07T16:14:46.496Z,100733.56
2019-04-07T16:17:14.607Z,100728.49
2019-04-07T16:19:50.486Z,100730.25
2019-04-07T16:22:15.663Z,100733.31
2019-04-07T16:24:47.516Z,100733.31
2019-04-07T16:27:39.221Z,100732.92
2019-04-07T16:30:08.652Z,100731.11
2019-04-07T16:32:44.951Z,100737.45
2019-04-07T16:35:18.306Z,100734.21
2019-04-07T16:37:48.219Z,100734.43
2019-04-07T16:40:21.909Z,100739.34
2019-04-07T16:43:04.443Z,100741.74
2019-04-07T16:45:22.366Z,100742.53
2019-04-07T16:47:51.922Z,100747.92
2019-04-07T16:50:21.556Z,100744.58
2019-04-07T16:52:51.246Z,100744.94
2019-04-07T16:55:37.811Z,100743.50
2019-04-07T16:58:09.534Z,100745.54
2019-04-07T17:00:40.029Z,100738.61
2019-04-07T17:03:13.132Z,100742.52
2019-04-07T17:05:43.055Z,100753.48
2019-04-07T17:08:12.925Z,100649.52
2019-04-07T17:10:42.575Z,100744.64
2019-04-07T17:13:18.678Z,100745.80
2019-04-07T17:15:45.427Z,100750.61
2019-04-07T17:18:41.163Z,100751.17
2019-04-07T17:21:15.994Z,100746.84
2019-04-07T17:23:46.244Z,100754.42
2019-04-07T17:26:16.557Z,100755.02
2019-04-07T17:28:48.440Z,100757.00
2019-04-07T17:31:17.670Z,100757.69
2019-04-07T17:33:47.167Z,100756.91
2019-04-07T17:36:20.101Z,100767.55
2019-04-07T17:39:09.988Z,100763.90
2019-04-07T17:41:39.290Z,100771.46
2019-04-07T17:44:24.497Z,100769.31
2019-04-07T17:47:09.772Z,100770.75
2019-04-07T17:49:52.401Z,100777.52
2019-04-07T17:52:44.177Z,100773.38
2019-04-07T17:55:41.793Z,100771.69
2019-04-07T17:58:29.853Z,100762.81
2019-04-07T18:01:20.600Z,100768.15
2019-04-07T18:04:05.722Z,100767.91
2019-04-07T18:06:41.840Z,100765.19
2019-04-07T18:09:37.247Z,100772.98
2019-04-07T18:12:16.367Z,100773.97
2019-04-07T18:15:09.865Z,100783.02
2019-04-07T18:17:49.753Z,100782.37
2019-04-07T18:20:29.403Z,100791.97
2019-04-07T18:23:26.458Z,100792.02
2019-04-07T18:26:04.981Z,100790.22
2019-04-07T18:28:52.707Z,100797.72
2019-04-07T18:31:42.054Z,100802.87
2019-04-07T18:34:42.987Z,100804.65
2019-04-07T18:37:32.330Z,100804.11
2019-04-07T18:40:08.944Z,100812.55
2019-04-07T18:42:57.750Z,100812.57
2019-04-07T18:45:38.491Z,100823.56
2019-04-07T18:48:42.337Z,100826.96
2019-04-07T18:51:29.382Z,100829.02
2019-04-07T18:54:23.562Z,100838.38
2019-04-07T18:57:13.977Z,100841.06
2019-04-07T19:00:12.642Z,100838.83
2019-04-07T19:03:09.338Z,100842.75
2019-04-07T19:05:52.799Z,100851.32
2019-04-07T19:08:52.729Z,100852.09
2019-04-07T19:11:38.379Z,100850.65
2019-04-07T19:14:41.964Z,100858.63
2019-04-07T19:17:05.040Z,100858.46
2019-04-07T19:19:59.479Z,100857.02
2019-04-07T19:22:49.083Z,100850.74
2019-04-07T19:25:45.721Z,100851.56
2019-04-07T19:28:26.460Z,100856.27
2019-04-07T19:31:19.538Z,100852.13
2019-04-07T19:34:03.870Z,100854.09
2019-04-07T19:37:15.583Z,100854.22
2019-04-07T19:40:03.002Z,100857.02
2019-04-07T19:42:48.217Z,100858.80
2019-04-07T19:45:35.551Z,100861.13
2019-04-07T19:48:39.036Z,100859.35
2019-04-07T19:51:33.956Z,100861.95
2019-04-07T19:54:29.248Z,100861.16
2019-04-07T19:57:23.780Z,100865.70
2019-04-07T20:00:02.722Z,100870.44
2019-04-07T20:02:55.753Z,100872.05
2019-04-07T20:05:44.008Z,100871.28
2019-04-07T20:08:49.353Z,100869.58
2019-04-07T20:11:41.656Z,100875.96
2019-04-07T20:14:47.568Z,100867.43
2019-04-07T20:17:32.478Z,100867.19
2019-04-07T20:20:13.642Z,100871.80
2019-04-07T20:23:06.394Z,100869.24
2019-04-07T20:25:57.381Z,100869.80
2019-04-07T20:28:41.232Z,100880.94
2019-04-07T20:31:38.696Z,100876.61
2019-04-07T20:34:27.455Z,100874.54
2019-04-07T20:37:05.769Z,100879.98
2019-04-07T20:39:47.713Z,100877.98
2019-04-07T20:42:34.745Z,100879.16
2019-04-07T20:45:22.709Z,100878.89
2019-04-07T20:48:01.850Z,100873.09
2019-04-07T20:50:48.824Z,100878.94
2019-04-07T20:53:29.048Z,100879.00
2019-04-07T20:56:14.673Z,100873.28
2019-04-07T20:59:25.281Z,100870.31
2019-04-07T21:02:20.818Z,100877.99
2019-04-07T21:04:59.303Z,100874.61
2019-04-07T21:08:24.288Z,100880.03
2019-04-07T21:11:08.203Z,100878.23
2019-04-07T21:13:52.467Z,100878.48
2019-04-07T21:16:35.507Z,100880.63
2019-04-07T21:19:22.872Z,100882.92
2019-04-07T21:22:08.820Z,100882.19
2019-04-07T21:25:13.507Z,100883.25
2019-04-07T21:28:24.635Z,100886.84
2019-04-07T21:31:16.081Z,100885.61
2019-04-07T21:33:57.765Z,100885.33
2019-04-07T21:36:39.317Z,100882.90
2019-04-07T21:39:29.431Z,100893.38
2019-04-07T21:42:25.395Z,100894.48
2019-04-07T21:45:29.093Z,100893.66
2019-04-07T21:48:06.195Z,100895.84
2019-04-07T21:50:55.318Z,100900.66
2019-04-07T21:53:38.106Z,100899.31
2019-04-07T21:56:32.773Z,100895.70
2019-04-07T21:59:21.524Z,100885.08
2019-04-07T22:02:13.576Z,100890.31
2019-04-07T22:04:53.219Z,100896.51
2019-04-07T22:07:36.312Z,100898.13
2019-04-07T22:10:07.410Z,100896.45
2019-04-07T22:12:36.645Z,100894.75
2019-04-07T22:15:11.644Z,100899.62
2019-04-07T22:17:39.328Z,100895.67
2019-04-07T22:20:10.476Z,100894.58
2019-04-07T22:22:40.772Z,100893.03
2019-04-07T22:25:11.490Z,100897.97
2019-04-07T22:27:41.074Z,100895.69
2019-04-07T22:30:11.680Z,100896.48
2019-04-07T22:32:40.990Z,100902.56
2019-04-07T22:35:10.620Z,100901.69
2019-04-07T22:37:42.870Z,100900.93
2019-04-07T22:40:15.697Z,100893.61
2019-04-07T22:42:45.974Z,100890.31
2019-04-07T22:45:16.189Z,100886.97
2019-04-07T22:47:46.649Z,100892.74
2019-04-07T22:50:17.009Z,100890.95
2019-04-07T22:52:49.184Z,100890.70
2019-04-07T22:55:16.986Z,100897.19
2019-04-07T22:57:46.040Z,100885.53
2019-04-07T23:00:19.688Z,100885.41
2019-04-07T23:02:48.834Z,100886.92
2019-04-07T23:05:19.081Z,100883.61
2019-04-07T23:07:48.377Z,100884.81
2019-04-07T23:10:18.548Z,100886.24
2019-04-07T23:12:47.996Z,100889.88
2019-04-07T23:15:16.908Z,100885.97
2019-04-07T23:17:55.755Z,100885.23
2019-04-07T23:20:24.864Z,100886.17
2019-04-07T23:22:54.227Z,100888.52
2019-04-07T23:25:23.356Z,100884.70
2019-04-07T23:27:52.294Z,100885.23
2019-04-07T23:30:25.851Z,100886.27
2019-04-07T23:32:55.678Z,100882.98
2019-04-07T23:35:24.981Z,100882.24
2019-04-07T23:37:53.921Z,100886.29
2019-04-07T23:40:23.750Z,100883.28
2019-04-07T23:42:53.070Z,100881.17
2019-04-07T23:45:23.168Z,100881.31
2019-04-07T23:47:52.554Z,100883.12
2019-04-07T23:50:23.122Z,100889.33
2019-04-07T23:52:52.218Z,100892.50
2019-04-07T23:55:21.918Z,100888.27
2019-04-07T23:57:52.166Z,100893.37
